sensor_id;sensor_type;location;lat;lon;timestamp;P1;durP1;ratioP1;P2;durP2;ratioP2
2646;SDS011;1333;50.958;6.770;2022-07-23T00:01:05;10.80;;;6.67;;
2646;SDS011;1333;50.958;6.770;2022-07-23T00:03:31;8.73;;;7.30;;
2646;SDS011;1333;50.958;6.770;2022-07-23T00:05:56;10.90;;;7.10;;
2646;SDS011;1333;50.958;6.770;2022-07-23T00:08:22;10.07;;;6.50;;
2646;SDS011;1333;50.958;6.770;2022-07-23T00:10:47;7.40;;;6.03;;
2646;SDS011;1333;50.958;6.770;2022-07-23T00:13:13;8.90;;;6.37;;
2646;SDS011;1333;50.958;6.770;2022-07-23T00:15:38;17.03;;;7.50;;
2646;SDS011;1333;50.958;6.770;2022-07-23T00:18:04;11.60;;;5.93;;
2646;SDS011;1333;50.958;6.770;2022-07-23T00:20:29;16.27;;;6.87;;
2646;SDS011;1333;50.958;6.770;2022-07-23T00:22:55;10.63;;;6.60;;
2646;SDS011;1333;50.958;6.770;2022-07-23T00:25:22;12.57;;;8.37;;
2646;SDS011;1333;50.958;6.770;2022-07-23T00:27:48;11.63;;;7.57;;
2646;SDS011;1333;50.958;6.770;2022-07-23T00:30:14;9.23;;;6.90;;
2646;SDS011;1333;50.958;6.770;2022-07-23T00:32:49;12.97;;;8.30;;
2646;SDS011;1333;50.958;6.770;2022-07-23T00:35:16;10.13;;;8.70;;
2646;SDS011;1333;50.958;6.770;2022-07-23T00:37:45;9.23;;;7.83;;
2646;SDS011;1333;50.958;6.770;2022-07-23T00:40:10;14.60;;;8.87;;
2646;SDS011;1333;50.958;6.770;2022-07-23T00:42:36;12.90;;;8.60;;
2646;SDS011;1333;50.958;6.770;2022-07-23T00:45:02;10.00;;;6.93;;
2646;SDS011;1333;50.958;6.770;2022-07-23T00:47:29;11.20;;;8.50;;
2646;SDS011;1333;50.958;6.770;2022-07-23T00:49:55;15.43;;;8.40;;
2646;SDS011;1333;50.958;6.770;2022-07-23T00:52:20;9.47;;;8.10;;
2646;SDS011;1333;50.958;6.770;2022-07-23T00:54:46;14.93;;;7.43;;
2646;SDS011;1333;50.958;6.770;2022-07-23T00:57:12;10.57;;;8.53;;
2646;SDS011;1333;50.958;6.770;2022-07-23T00:59:39;13.00;;;8.93;;
2646;SDS011;1333;50.958;6.770;2022-07-23T01:02:04;15.00;;;10.07;;
2646;SDS011;1333;50.958;6.770;2022-07-23T01:04:30;12.97;;;8.00;;
2646;SDS011;1333;50.958;6.770;2022-07-23T01:06:56;10.77;;;7.90;;
2646;SDS011;1333;50.958;6.770;2022-07-23T01:09:21;11.23;;;8.57;;
2646;SDS011;1333;50.958;6.770;2022-07-23T01:11:47;16.23;;;10.70;;
2646;SDS011;1333;50.958;6.770;2022-07-23T01:14:13;16.10;;;9.57;;
2646;SDS011;1333;50.958;6.770;2022-07-23T01:16:43;15.80;;;9.70;;
2646;SDS011;1333;50.958;6.770;2022-07-23T01:19:10;13.17;;;9.87;;
2646;SDS011;1333;50.958;6.770;2022-07-23T01:21:37;10.63;;;9.30;;
2646;SDS011;1333;50.958;6.770;2022-07-23T01:24:04;13.40;;;9.27;;
2646;SDS011;1333;50.958;6.770;2022-07-23T01:26:30;15.13;;;9.63;;
2646;SDS011;1333;50.958;6.770;2022-07-23T01:28:56;16.73;;;9.20;;
2646;SDS011;1333;50.958;6.770;2022-07-23T01:31:22;12.10;;;7.80;;
2646;SDS011;1333;50.958;6.770;2022-07-23T01:33:47;14.23;;;8.20;;
2646;SDS011;1333;50.958;6.770;2022-07-23T01:36:13;13.43;;;8.37;;
2646;SDS011;1333;50.958;6.770;2022-07-23T01:38:39;14.67;;;7.63;;
2646;SDS011;1333;50.958;6.770;2022-07-23T01:41:04;10.80;;;8.67;;
2646;SDS011;1333;50.958;6.770;2022-07-23T01:43:30;11.67;;;7.90;;
2646;SDS011;1333;50.958;6.770;2022-07-23T01:45:56;12.33;;;7.77;;
2646;SDS011;1333;50.958;6.770;2022-07-23T01:48:21;14.83;;;8.57;;
2646;SDS011;1333;50.958;6.770;2022-07-23T01:50:47;12.40;;;8.63;;
2646;SDS011;1333;50.958;6.770;2022-07-23T01:53:13;9.80;;;7.20;;
2646;SDS011;1333;50.958;6.770;2022-07-23T01:55:39;9.33;;;6.90;;
2646;SDS011;1333;50.958;6.770;2022-07-23T01:58:04;9.77;;;7.00;;
2646;SDS011;1333;50.958;6.770;2022-07-23T02:00:30;13.10;;;8.87;;
2646;SDS011;1333;50.958;6.770;2022-07-23T02:02:56;12.53;;;8.07;;
2646;SDS011;1333;50.958;6.770;2022-07-23T02:05:23;13.57;;;9.07;;
2646;SDS011;1333;50.958;6.770;2022-07-23T02:07:49;10.77;;;8.07;;
2646;SDS011;1333;50.958;6.770;2022-07-23T02:10:15;12.97;;;8.60;;
2646;SDS011;1333;50.958;6.770;2022-07-23T02:12:40;16.37;;;8.03;;
2646;SDS011;1333;50.958;6.770;2022-07-23T02:15:06;12.00;;;7.40;;
2646;SDS011;1333;50.958;6.770;2022-07-23T02:17:32;11.80;;;8.10;;
2646;SDS011;1333;50.958;6.770;2022-07-23T02:19:57;14.03;;;8.13;;
2646;SDS011;1333;50.958;6.770;2022-07-23T02:22:23;17.00;;;10.37;;
2646;SDS011;1333;50.958;6.770;2022-07-23T02:24:48;11.30;;;7.90;;
2646;SDS011;1333;50.958;6.770;2022-07-23T02:27:14;13.73;;;7.80;;
2646;SDS011;1333;50.958;6.770;2022-07-23T02:29:39;16.10;;;8.90;;
2646;SDS011;1333;50.958;6.770;2022-07-23T02:32:05;12.80;;;8.00;;
2646;SDS011;1333;50.958;6.770;2022-07-23T02:34:30;14.00;;;9.13;;
2646;SDS011;1333;50.958;6.770;2022-07-23T02:36:56;12.63;;;7.80;;
2646;SDS011;1333;50.958;6.770;2022-07-23T02:39:21;9.90;;;7.83;;
2646;SDS011;1333;50.958;6.770;2022-07-23T02:41:47;12.67;;;8.60;;
2646;SDS011;1333;50.958;6.770;2022-07-23T02:44:13;10.80;;;6.50;;
2646;SDS011;1333;50.958;6.770;2022-07-23T02:46:38;12.30;;;7.00;;
2646;SDS011;1333;50.958;6.770;2022-07-23T02:49:04;14.53;;;8.93;;
2646;SDS011;1333;50.958;6.770;2022-07-23T02:51:29;13.47;;;7.53;;
2646;SDS011;1333;50.958;6.770;2022-07-23T02:53:55;10.27;;;7.80;;
2646;SDS011;1333;50.958;6.770;2022-07-23T02:56:21;11.47;;;8.40;;
2646;SDS011;1333;50.958;6.770;2022-07-23T02:58:47;11.47;;;7.73;;
2646;SDS011;1333;50.958;6.770;2022-07-23T03:01:13;13.53;;;9.90;;
2646;SDS011;1333;50.958;6.770;2022-07-23T03:03:38;10.43;;;7.93;;
2646;SDS011;1333;50.958;6.770;2022-07-23T03:06:04;9.60;;;7.90;;
2646;SDS011;1333;50.958;6.770;2022-07-23T03:08:30;12.70;;;7.90;;
2646;SDS011;1333;50.958;6.770;2022-07-23T03:10:56;12.00;;;7.47;;
2646;SDS011;1333;50.958;6.770;2022-07-23T03:13:21;10.23;;;7.70;;
2646;SDS011;1333;50.958;6.770;2022-07-23T03:15:47;9.03;;;7.33;;
2646;SDS011;1333;50.958;6.770;2022-07-23T03:18:12;11.63;;;6.93;;
2646;SDS011;1333;50.958;6.770;2022-07-23T03:20:38;11.13;;;6.83;;
2646;SDS011;1333;50.958;6.770;2022-07-23T03:23:03;9.70;;;7.43;;
2646;SDS011;1333;50.958;6.770;2022-07-23T03:25:29;12.20;;;6.43;;
2646;SDS011;1333;50.958;6.770;2022-07-23T03:27:54;10.20;;;7.83;;
2646;SDS011;1333;50.958;6.770;2022-07-23T03:30:20;17.13;;;8.73;;
2646;SDS011;1333;50.958;6.770;2022-07-23T03:32:46;15.87;;;10.00;;
2646;SDS011;1333;50.958;6.770;2022-07-23T03:35:11;12.40;;;8.33;;
2646;SDS011;1333;50.958;6.770;2022-07-23T03:37:37;14.80;;;8.80;;
2646;SDS011;1333;50.958;6.770;2022-07-23T03:40:02;13.47;;;8.60;;
2646;SDS011;1333;50.958;6.770;2022-07-23T03:42:28;13.80;;;8.70;;
2646;SDS011;1333;50.958;6.770;2022-07-23T03:44:54;19.10;;;9.80;;
2646;SDS011;1333;50.958;6.770;2022-07-23T03:47:19;14.63;;;9.17;;
2646;SDS011;1333;50.958;6.770;2022-07-23T03:49:46;14.33;;;10.77;;
2646;SDS011;1333;50.958;6.770;2022-07-23T03:52:13;11.30;;;8.63;;
2646;SDS011;1333;50.958;6.770;2022-07-23T03:54:38;18.80;;;9.40;;
2646;SDS011;1333;50.958;6.770;2022-07-23T03:57:04;14.33;;;9.53;;
2646;SDS011;1333;50.958;6.770;2022-07-23T03:59:29;15.70;;;9.20;;
2646;SDS011;1333;50.958;6.770;2022-07-23T04:01:55;15.40;;;9.10;;
2646;SDS011;1333;50.958;6.770;2022-07-23T04:04:20;17.83;;;9.60;;
2646;SDS011;1333;50.958;6.770;2022-07-23T04:06:46;15.27;;;9.37;;
2646;SDS011;1333;50.958;6.770;2022-07-23T04:09:12;22.20;;;10.90;;
2646;SDS011;1333;50.958;6.770;2022-07-23T04:11:38;21.03;;;11.10;;
2646;SDS011;1333;50.958;6.770;2022-07-23T04:14:03;17.83;;;11.07;;
2646;SDS011;1333;50.958;6.770;2022-07-23T04:16:29;16.90;;;9.70;;
2646;SDS011;1333;50.958;6.770;2022-07-23T04:18:56;15.43;;;9.43;;
2646;SDS011;1333;50.958;6.770;2022-07-23T04:21:22;17.30;;;10.50;;
2646;SDS011;1333;50.958;6.770;2022-07-23T04:23:48;17.47;;;10.07;;
2646;SDS011;1333;50.958;6.770;2022-07-23T04:26:14;21.03;;;11.90;;
2646;SDS011;1333;50.958;6.770;2022-07-23T04:28:39;13.17;;;9.77;;
2646;SDS011;1333;50.958;6.770;2022-07-23T04:31:05;18.30;;;10.30;;
2646;SDS011;1333;50.958;6.770;2022-07-23T04:33:30;14.30;;;8.83;;
2646;SDS011;1333;50.958;6.770;2022-07-23T04:35:56;14.83;;;9.70;;
2646;SDS011;1333;50.958;6.770;2022-07-23T04:38:22;18.70;;;11.20;;
2646;SDS011;1333;50.958;6.770;2022-07-23T04:40:47;18.90;;;11.37;;
2646;SDS011;1333;50.958;6.770;2022-07-23T04:43:13;20.63;;;11.63;;
2646;SDS011;1333;50.958;6.770;2022-07-23T04:45:38;19.13;;;12.77;;
2646;SDS011;1333;50.958;6.770;2022-07-23T04:48:04;14.60;;;11.87;;
2646;SDS011;1333;50.958;6.770;2022-07-23T04:50:30;16.63;;;8.93;;
2646;SDS011;1333;50.958;6.770;2022-07-23T04:52:55;21.90;;;11.80;;
2646;SDS011;1333;50.958;6.770;2022-07-23T04:55:21;14.67;;;10.50;;
2646;SDS011;1333;50.958;6.770;2022-07-23T04:57:46;23.37;;;12.27;;
2646;SDS011;1333;50.958;6.770;2022-07-23T05:00:12;21.17;;;11.07;;
2646;SDS011;1333;50.958;6.770;2022-07-23T05:02:38;18.93;;;10.60;;
2646;SDS011;1333;50.958;6.770;2022-07-23T05:05:03;18.23;;;12.40;;
2646;SDS011;1333;50.958;6.770;2022-07-23T05:07:29;16.70;;;10.73;;
2646;SDS011;1333;50.958;6.770;2022-07-23T05:09:55;13.80;;;10.10;;
2646;SDS011;1333;50.958;6.770;2022-07-23T05:12:20;13.30;;;9.07;;
2646;SDS011;1333;50.958;6.770;2022-07-23T05:14:46;18.00;;;9.93;;
2646;SDS011;1333;50.958;6.770;2022-07-23T05:17:11;18.43;;;10.40;;
2646;SDS011;1333;50.958;6.770;2022-07-23T05:19:37;20.57;;;9.83;;
2646;SDS011;1333;50.958;6.770;2022-07-23T05:22:02;18.27;;;10.70;;
2646;SDS011;1333;50.958;6.770;2022-07-23T05:24:28;16.53;;;10.43;;
2646;SDS011;1333;50.958;6.770;2022-07-23T05:26:53;21.10;;;11.17;;
2646;SDS011;1333;50.958;6.770;2022-07-23T05:29:19;17.80;;;10.90;;
2646;SDS011;1333;50.958;6.770;2022-07-23T05:31:44;21.23;;;12.40;;
2646;SDS011;1333;50.958;6.770;2022-07-23T05:34:10;27.23;;;14.57;;
2646;SDS011;1333;50.958;6.770;2022-07-23T05:36:36;20.67;;;12.20;;
2646;SDS011;1333;50.958;6.770;2022-07-23T05:39:02;19.20;;;10.53;;
2646;SDS011;1333;50.958;6.770;2022-07-23T05:41:28;20.40;;;13.40;;
2646;SDS011;1333;50.958;6.770;2022-07-23T05:43:53;18.50;;;12.80;;
2646;SDS011;1333;50.958;6.770;2022-07-23T05:46:19;17.00;;;11.30;;
2646;SDS011;1333;50.958;6.770;2022-07-23T05:48:44;16.13;;;12.57;;
2646;SDS011;1333;50.958;6.770;2022-07-23T05:51:18;13.47;;;10.37;;
2646;SDS011;1333;50.958;6.770;2022-07-23T05:53:47;19.83;;;10.53;;
2646;SDS011;1333;50.958;6.770;2022-07-23T05:56:13;20.30;;;10.53;;
2646;SDS011;1333;50.958;6.770;2022-07-23T05:58:39;12.40;;;8.87;;
2646;SDS011;1333;50.958;6.770;2022-07-23T06:01:04;11.13;;;7.80;;
2646;SDS011;1333;50.958;6.770;2022-07-23T06:03:30;10.90;;;8.10;;
2646;SDS011;1333;50.958;6.770;2022-07-23T06:05:55;15.50;;;8.07;;
2646;SDS011;1333;50.958;6.770;2022-07-23T06:08:21;15.47;;;9.23;;
2646;SDS011;1333;50.958;6.770;2022-07-23T06:10:46;11.97;;;7.70;;
2646;SDS011;1333;50.958;6.770;2022-07-23T06:13:12;10.47;;;6.90;;
2646;SDS011;1333;50.958;6.770;2022-07-23T06:15:38;8.90;;;7.60;;
2646;SDS011;1333;50.958;6.770;2022-07-23T06:18:03;13.90;;;7.07;;
2646;SDS011;1333;50.958;6.770;2022-07-23T06:20:29;9.30;;;6.70;;
2646;SDS011;1333;50.958;6.770;2022-07-23T06:22:55;8.40;;;6.13;;
2646;SDS011;1333;50.958;6.770;2022-07-23T06:25:20;8.37;;;6.53;;
2646;SDS011;1333;50.958;6.770;2022-07-23T06:27:46;10.30;;;7.03;;
2646;SDS011;1333;50.958;6.770;2022-07-23T06:30:13;9.70;;;6.67;;
2646;SDS011;1333;50.958;6.770;2022-07-23T06:32:40;8.30;;;6.20;;
2646;SDS011;1333;50.958;6.770;2022-07-23T06:35:06;11.53;;;6.07;;
2646;SDS011;1333;50.958;6.770;2022-07-23T06:37:32;7.80;;;7.00;;
2646;SDS011;1333;50.958;6.770;2022-07-23T06:39:58;7.70;;;6.87;;
2646;SDS011;1333;50.958;6.770;2022-07-23T06:42:23;9.83;;;7.27;;
2646;SDS011;1333;50.958;6.770;2022-07-23T06:44:49;9.77;;;7.13;;
2646;SDS011;1333;50.958;6.770;2022-07-23T06:47:14;9.90;;;7.23;;
2646;SDS011;1333;50.958;6.770;2022-07-23T06:49:40;8.73;;;6.27;;
2646;SDS011;1333;50.958;6.770;2022-07-23T06:52:06;8.83;;;6.37;;
2646;SDS011;1333;50.958;6.770;2022-07-23T06:54:32;8.10;;;6.47;;
2646;SDS011;1333;50.958;6.770;2022-07-23T06:56:57;8.67;;;7.57;;
2646;SDS011;1333;50.958;6.770;2022-07-23T06:59:23;11.73;;;7.10;;
2646;SDS011;1333;50.958;6.770;2022-07-23T07:01:48;8.80;;;6.17;;
2646;SDS011;1333;50.958;6.770;2022-07-23T07:04:14;7.20;;;5.67;;
2646;SDS011;1333;50.958;6.770;2022-07-23T07:06:40;7.40;;;6.80;;
2646;SDS011;1333;50.958;6.770;2022-07-23T07:09:05;12.17;;;6.40;;
2646;SDS011;1333;50.958;6.770;2022-07-23T07:11:31;9.60;;;7.50;;
2646;SDS011;1333;50.958;6.770;2022-07-23T07:13:56;8.40;;;7.30;;
2646;SDS011;1333;50.958;6.770;2022-07-23T07:16:22;8.67;;;6.83;;
2646;SDS011;1333;50.958;6.770;2022-07-23T07:18:47;13.87;;;5.47;;
2646;SDS011;1333;50.958;6.770;2022-07-23T07:21:13;7.70;;;6.13;;
2646;SDS011;1333;50.958;6.770;2022-07-23T07:23:39;7.80;;;6.43;;
2646;SDS011;1333;50.958;6.770;2022-07-23T07:26:04;7.50;;;5.83;;
2646;SDS011;1333;50.958;6.770;2022-07-23T07:28:30;8.67;;;6.80;;
2646;SDS011;1333;50.958;6.770;2022-07-23T07:30:55;9.20;;;8.30;;
2646;SDS011;1333;50.958;6.770;2022-07-23T07:33:21;9.93;;;7.97;;
2646;SDS011;1333;50.958;6.770;2022-07-23T07:35:47;9.77;;;7.63;;
2646;SDS011;1333;50.958;6.770;2022-07-23T07:38:12;9.77;;;8.30;;
2646;SDS011;1333;50.958;6.770;2022-07-23T07:40:38;10.10;;;9.10;;
2646;SDS011;1333;50.958;6.770;2022-07-23T07:43:03;8.93;;;8.03;;
2646;SDS011;1333;50.958;6.770;2022-07-23T07:45:29;10.20;;;7.87;;
2646;SDS011;1333;50.958;6.770;2022-07-23T07:47:56;9.43;;;8.43;;
2646;SDS011;1333;50.958;6.770;2022-07-23T07:50:22;11.77;;;8.27;;
2646;SDS011;1333;50.958;6.770;2022-07-23T07:52:48;11.47;;;8.20;;
2646;SDS011;1333;50.958;6.770;2022-07-23T07:55:14;9.40;;;8.50;;
2646;SDS011;1333;50.958;6.770;2022-07-23T07:57:40;9.43;;;8.43;;
2646;SDS011;1333;50.958;6.770;2022-07-23T08:00:07;11.67;;;8.93;;
2646;SDS011;1333;50.958;6.770;2022-07-23T08:02:47;9.07;;;7.40;;
2646;SDS011;1333;50.958;6.770;2022-07-23T08:05:23;9.97;;;8.83;;
2646;SDS011;1333;50.958;6.770;2022-07-23T08:07:50;10.80;;;9.43;;
2646;SDS011;1333;50.958;6.770;2022-07-23T08:10:16;10.10;;;8.20;;
2646;SDS011;1333;50.958;6.770;2022-07-23T08:12:43;9.40;;;8.07;;
2646;SDS011;1333;50.958;6.770;2022-07-23T08:15:11;9.70;;;8.50;;
2646;SDS011;1333;50.958;6.770;2022-07-23T08:17:41;10.47;;;9.10;;
2646;SDS011;1333;50.958;6.770;2022-07-23T08:20:08;8.47;;;7.60;;
2646;SDS011;1333;50.958;6.770;2022-07-23T08:22:45;10.77;;;7.73;;
2646;SDS011;1333;50.958;6.770;2022-07-23T08:25:12;11.83;;;7.50;;
2646;SDS011;1333;50.958;6.770;2022-07-23T08:27:38;8.77;;;6.73;;
2646;SDS011;1333;50.958;6.770;2022-07-23T08:30:04;8.03;;;6.90;;
2646;SDS011;1333;50.958;6.770;2022-07-23T08:32:30;8.93;;;6.10;;
2646;SDS011;1333;50.958;6.770;2022-07-23T08:34:55;7.70;;;6.57;;
2646;SDS011;1333;50.958;6.770;2022-07-23T08:37:21;7.23;;;6.40;;
2646;SDS011;1333;50.958;6.770;2022-07-23T08:39:46;7.70;;;5.53;;
2646;SDS011;1333;50.958;6.770;2022-07-23T08:42:13;6.33;;;5.63;;
2646;SDS011;1333;50.958;6.770;2022-07-23T08:44:40;6.77;;;6.07;;
2646;SDS011;1333;50.958;6.770;2022-07-23T08:47:10;6.97;;;6.37;;
2646;SDS011;1333;50.958;6.770;2022-07-23T08:49:37;7.03;;;6.43;;
2646;SDS011;1333;50.958;6.770;2022-07-23T08:52:04;7.63;;;6.67;;
2646;SDS011;1333;50.958;6.770;2022-07-23T08:54:31;8.00;;;6.10;;
2646;SDS011;1333;50.958;6.770;2022-07-23T08:56:56;7.30;;;6.40;;
2646;SDS011;1333;50.958;6.770;2022-07-23T08:59:22;7.10;;;6.37;;
2646;SDS011;1333;50.958;6.770;2022-07-23T09:01:48;8.00;;;7.20;;
2646;SDS011;1333;50.958;6.770;2022-07-23T09:04:13;11.07;;;6.50;;
2646;SDS011;1333;50.958;6.770;2022-07-23T09:06:39;7.03;;;6.40;;
2646;SDS011;1333;50.958;6.770;2022-07-23T09:09:17;8.17;;;6.60;;
2646;SDS011;1333;50.958;6.770;2022-07-23T09:11:47;7.00;;;6.30;;
2646;SDS011;1333;50.958;6.770;2022-07-23T09:14:43;5.20;;;4.70;;
2646;SDS011;1333;50.958;6.770;2022-07-23T09:17:14;8.00;;;6.30;;
2646;SDS011;1333;50.958;6.770;2022-07-23T09:19:41;8.20;;;7.40;;
2646;SDS011;1333;50.958;6.770;2022-07-23T09:22:23;6.37;;;5.77;;
2646;SDS011;1333;50.958;6.770;2022-07-23T09:25:08;9.80;;;7.60;;
2646;SDS011;1333;50.958;6.770;2022-07-23T09:27:49;7.67;;;6.97;;
2646;SDS011;1333;50.958;6.770;2022-07-23T09:30:15;9.60;;;7.17;;
2646;SDS011;1333;50.958;6.770;2022-07-23T09:32:41;6.90;;;5.93;;
2646;SDS011;1333;50.958;6.770;2022-07-23T09:35:06;6.80;;;6.20;;
2646;SDS011;1333;50.958;6.770;2022-07-23T09:37:32;6.77;;;6.17;;
2646;SDS011;1333;50.958;6.770;2022-07-23T09:40:08;6.90;;;6.00;;
2646;SDS011;1333;50.958;6.770;2022-07-23T09:42:38;7.27;;;6.50;;
2646;SDS011;1333;50.958;6.770;2022-07-23T09:45:03;5.97;;;5.37;;
2646;SDS011;1333;50.958;6.770;2022-07-23T09:47:35;7.47;;;5.70;;
2646;SDS011;1333;50.958;6.770;2022-07-23T09:50:02;5.03;;;4.63;;
2646;SDS011;1333;50.958;6.770;2022-07-23T09:52:44;5.87;;;5.43;;
2646;SDS011;1333;50.958;6.770;2022-07-23T09:55:14;6.40;;;5.80;;
2646;SDS011;1333;50.958;6.770;2022-07-23T09:57:41;6.40;;;5.97;;
2646;SDS011;1333;50.958;6.770;2022-07-23T10:00:11;5.43;;;5.03;;
2646;SDS011;1333;50.958;6.770;2022-07-23T10:02:38;5.30;;;4.80;;
2646;SDS011;1333;50.958;6.770;2022-07-23T10:05:04;5.73;;;5.23;;
2646;SDS011;1333;50.958;6.770;2022-07-23T10:07:31;6.37;;;5.87;;
2646;SDS011;1333;50.958;6.770;2022-07-23T10:09:59;6.90;;;5.47;;
2646;SDS011;1333;50.958;6.770;2022-07-23T10:12:25;6.20;;;5.67;;
2646;SDS011;1333;50.958;6.770;2022-07-23T10:14:59;5.80;;;5.20;;
2646;SDS011;1333;50.958;6.770;2022-07-23T10:17:25;7.70;;;7.00;;
2646;SDS011;1333;50.958;6.770;2022-07-23T10:19:52;6.47;;;5.87;;
2646;SDS011;1333;50.958;6.770;2022-07-23T10:22:22;5.60;;;5.23;;
2646;SDS011;1333;50.958;6.770;2022-07-23T10:24:56;7.00;;;6.37;;
2646;SDS011;1333;50.958;6.770;2022-07-23T10:30:51;5.30;;;4.80;;
2646;SDS011;1333;50.958;6.770;2022-07-23T10:33:30;5.23;;;4.80;;
2646;SDS011;1333;50.958;6.770;2022-07-23T10:36:09;6.13;;;5.73;;
2646;SDS011;1333;50.958;6.770;2022-07-23T10:38:59;11.80;;;10.60;;
2646;SDS011;1333;50.958;6.770;2022-07-23T10:41:34;5.50;;;5.00;;
2646;SDS011;1333;50.958;6.770;2022-07-23T10:49:29;4.33;;;4.03;;
2646;SDS011;1333;50.958;6.770;2022-07-23T10:54:45;4.67;;;4.37;;
2646;SDS011;1333;50.958;6.770;2022-07-23T10:57:14;4.40;;;3.47;;
2646;SDS011;1333;50.958;6.770;2022-07-23T11:02:24;4.20;;;3.90;;
2646;SDS011;1333;50.958;6.770;2022-07-23T11:04:51;5.13;;;4.73;;
2646;SDS011;1333;50.958;6.770;2022-07-23T11:07:17;4.03;;;3.73;;
2646;SDS011;1333;50.958;6.770;2022-07-23T11:09:43;9.70;;;6.47;;
2646;SDS011;1333;50.958;6.770;2022-07-23T11:17:31;4.40;;;4.10;;
2646;SDS011;1333;50.958;6.770;2022-07-23T11:25:10;4.37;;;4.07;;
2646;SDS011;1333;50.958;6.770;2022-07-23T11:27:44;3.60;;;3.40;;
2646;SDS011;1333;50.958;6.770;2022-07-23T11:30:23;3.57;;;3.37;;
2646;SDS011;1333;50.958;6.770;2022-07-23T11:35:34;3.33;;;3.10;;
2646;SDS011;1333;50.958;6.770;2022-07-23T11:40:44;4.90;;;3.30;;
2646;SDS011;1333;50.958;6.770;2022-07-23T11:43:11;3.43;;;3.23;;
2646;SDS011;1333;50.958;6.770;2022-07-23T11:45:39;3.50;;;3.20;;
2646;SDS011;1333;50.958;6.770;2022-07-23T11:48:17;3.80;;;3.50;;
2646;SDS011;1333;50.958;6.770;2022-07-23T11:50:47;3.67;;;3.37;;
2646;SDS011;1333;50.958;6.770;2022-07-23T11:53:20;4.70;;;4.30;;
2646;SDS011;1333;50.958;6.770;2022-07-23T11:55:48;3.30;;;3.10;;
2646;SDS011;1333;50.958;6.770;2022-07-23T11:58:14;6.30;;;5.70;;
2646;SDS011;1333;50.958;6.770;2022-07-23T12:00:40;7.00;;;6.40;;
2646;SDS011;1333;50.958;6.770;2022-07-23T12:03:06;3.50;;;3.30;;
2646;SDS011;1333;50.958;6.770;2022-07-23T12:05:33;11.87;;;10.77;;
2646;SDS011;1333;50.958;6.770;2022-07-23T12:08:01;4.53;;;4.17;;
2646;SDS011;1333;50.958;6.770;2022-07-23T12:10:30;4.10;;;3.80;;
2646;SDS011;1333;50.958;6.770;2022-07-23T12:12:59;2.93;;;2.73;;
2646;SDS011;1333;50.958;6.770;2022-07-23T12:15:34;3.30;;;3.10;;
2646;SDS011;1333;50.958;6.770;2022-07-23T12:18:08;3.90;;;3.60;;
2646;SDS011;1333;50.958;6.770;2022-07-23T12:20:38;3.73;;;3.43;;
2646;SDS011;1333;50.958;6.770;2022-07-23T12:23:07;3.77;;;3.30;;
2646;SDS011;1333;50.958;6.770;2022-07-23T12:25:35;2.90;;;2.70;;
2646;SDS011;1333;50.958;6.770;2022-07-23T12:30:43;3.20;;;3.00;;
2646;SDS011;1333;50.958;6.770;2022-07-23T12:33:12;3.60;;;3.30;;
2646;SDS011;1333;50.958;6.770;2022-07-23T12:35:47;3.43;;;3.13;;
2646;SDS011;1333;50.958;6.770;2022-07-23T12:38:15;3.60;;;3.30;;
2646;SDS011;1333;50.958;6.770;2022-07-23T12:40:46;3.20;;;3.00;;
2646;SDS011;1333;50.958;6.770;2022-07-23T12:43:23;5.83;;;3.40;;
2646;SDS011;1333;50.958;6.770;2022-07-23T12:45:54;3.10;;;2.90;;
2646;SDS011;1333;50.958;6.770;2022-07-23T12:51:15;2.67;;;2.43;;
2646;SDS011;1333;50.958;6.770;2022-07-23T12:56:13;4.10;;;3.30;;
2646;SDS011;1333;50.958;6.770;2022-07-23T13:01:22;3.00;;;2.80;;
2646;SDS011;1333;50.958;6.770;2022-07-23T13:06:26;3.33;;;3.10;;
2646;SDS011;1333;50.958;6.770;2022-07-23T13:08:54;2.10;;;2.00;;
2646;SDS011;1333;50.958;6.770;2022-07-23T13:11:20;2.93;;;2.73;;
2646;SDS011;1333;50.958;6.770;2022-07-23T13:13:45;2.90;;;2.70;;
2646;SDS011;1333;50.958;6.770;2022-07-23T13:16:11;3.20;;;2.77;;
2646;SDS011;1333;50.958;6.770;2022-07-23T13:18:36;2.77;;;2.57;;
2646;SDS011;1333;50.958;6.770;2022-07-23T13:21:02;3.23;;;3.03;;
2646;SDS011;1333;50.958;6.770;2022-07-23T13:23:28;3.43;;;3.20;;
2646;SDS011;1333;50.958;6.770;2022-07-23T13:25:53;4.00;;;3.70;;
2646;SDS011;1333;50.958;6.770;2022-07-23T13:28:19;4.23;;;3.83;;
2646;SDS011;1333;50.958;6.770;2022-07-23T13:30:46;4.10;;;3.80;;
2646;SDS011;1333;50.958;6.770;2022-07-23T13:33:15;3.27;;;3.07;;
2646;SDS011;1333;50.958;6.770;2022-07-23T13:35:42;3.00;;;2.17;;
2646;SDS011;1333;50.958;6.770;2022-07-23T13:38:07;5.47;;;2.27;;
2646;SDS011;1333;50.958;6.770;2022-07-23T13:40:34;3.93;;;2.60;;
2646;SDS011;1333;50.958;6.770;2022-07-23T13:43:04;3.10;;;2.90;;
2646;SDS011;1333;50.958;6.770;2022-07-23T13:45:31;3.30;;;3.10;;
2646;SDS011;1333;50.958;6.770;2022-07-23T13:47:56;3.30;;;3.10;;
2646;SDS011;1333;50.958;6.770;2022-07-23T13:50:22;3.37;;;3.17;;
2646;SDS011;1333;50.958;6.770;2022-07-23T13:52:48;4.30;;;4.00;;
2646;SDS011;1333;50.958;6.770;2022-07-23T13:55:14;5.50;;;3.67;;
2646;SDS011;1333;50.958;6.770;2022-07-23T13:57:40;4.27;;;3.80;;
2646;SDS011;1333;50.958;6.770;2022-07-23T14:00:06;3.80;;;3.57;;
2646;SDS011;1333;50.958;6.770;2022-07-23T14:02:35;3.37;;;3.17;;
2646;SDS011;1333;50.958;6.770;2022-07-23T14:05:01;4.07;;;3.67;;
2646;SDS011;1333;50.958;6.770;2022-07-23T14:07:27;4.20;;;3.90;;
2646;SDS011;1333;50.958;6.770;2022-07-23T14:09:53;2.90;;;2.40;;
2646;SDS011;1333;50.958;6.770;2022-07-23T14:12:19;2.87;;;2.67;;
2646;SDS011;1333;50.958;6.770;2022-07-23T14:14:44;3.40;;;3.20;;
2646;SDS011;1333;50.958;6.770;2022-07-23T14:17:10;3.13;;;2.93;;
2646;SDS011;1333;50.958;6.770;2022-07-23T14:19:35;3.10;;;2.80;;
2646;SDS011;1333;50.958;6.770;2022-07-23T14:22:01;2.90;;;2.70;;
2646;SDS011;1333;50.958;6.770;2022-07-23T14:24:26;4.13;;;3.43;;
2646;SDS011;1333;50.958;6.770;2022-07-23T14:26:52;3.20;;;2.57;;
2646;SDS011;1333;50.958;6.770;2022-07-23T14:29:18;3.10;;;2.90;;
2646;SDS011;1333;50.958;6.770;2022-07-23T14:31:43;3.20;;;2.70;;
2646;SDS011;1333;50.958;6.770;2022-07-23T14:34:09;3.20;;;2.93;;
2646;SDS011;1333;50.958;6.770;2022-07-23T14:36:36;3.27;;;2.97;;
2646;SDS011;1333;50.958;6.770;2022-07-23T14:39:02;3.10;;;2.37;;
2646;SDS011;1333;50.958;6.770;2022-07-23T14:41:28;2.63;;;2.43;;
2646;SDS011;1333;50.958;6.770;2022-07-23T14:43:53;5.63;;;2.93;;
2646;SDS011;1333;50.958;6.770;2022-07-23T14:46:19;4.03;;;3.63;;
2646;SDS011;1333;50.958;6.770;2022-07-23T14:48:44;4.83;;;3.53;;
2646;SDS011;1333;50.958;6.770;2022-07-23T14:51:10;2.63;;;2.43;;
2646;SDS011;1333;50.958;6.770;2022-07-23T14:53:35;4.23;;;3.50;;
2646;SDS011;1333;50.958;6.770;2022-07-23T14:56:01;2.73;;;2.53;;
2646;SDS011;1333;50.958;6.770;2022-07-23T14:58:27;3.93;;;3.10;;
2646;SDS011;1333;50.958;6.770;2022-07-23T15:00:54;3.60;;;2.53;;
2646;SDS011;1333;50.958;6.770;2022-07-23T15:03:19;3.30;;;2.60;;
2646;SDS011;1333;50.958;6.770;2022-07-23T15:05:45;3.10;;;2.60;;
2646;SDS011;1333;50.958;6.770;2022-07-23T15:08:11;3.67;;;3.37;;
2646;SDS011;1333;50.958;6.770;2022-07-23T15:10:36;3.83;;;3.47;;
2646;SDS011;1333;50.958;6.770;2022-07-23T15:13:02;3.23;;;2.93;;
2646;SDS011;1333;50.958;6.770;2022-07-23T15:15:27;6.03;;;3.63;;
2646;SDS011;1333;50.958;6.770;2022-07-23T15:17:53;3.10;;;2.90;;
2646;SDS011;1333;50.958;6.770;2022-07-23T15:20:18;2.97;;;2.77;;
2646;SDS011;1333;50.958;6.770;2022-07-23T15:22:44;3.83;;;2.93;;
2646;SDS011;1333;50.958;6.770;2022-07-23T15:25:12;3.93;;;3.30;;
2646;SDS011;1333;50.958;6.770;2022-07-23T15:27:38;2.80;;;2.60;;
2646;SDS011;1333;50.958;6.770;2022-07-23T15:30:04;2.53;;;2.33;;
2646;SDS011;1333;50.958;6.770;2022-07-23T15:32:30;4.80;;;2.67;;
2646;SDS011;1333;50.958;6.770;2022-07-23T15:34:55;2.80;;;2.47;;
2646;SDS011;1333;50.958;6.770;2022-07-23T15:37:21;3.60;;;3.27;;
2646;SDS011;1333;50.958;6.770;2022-07-23T15:39:50;3.50;;;3.00;;
2646;SDS011;1333;50.958;6.770;2022-07-23T15:42:16;3.63;;;3.20;;
2646;SDS011;1333;50.958;6.770;2022-07-23T15:44:42;3.53;;;3.10;;
2646;SDS011;1333;50.958;6.770;2022-07-23T15:47:12;2.50;;;2.30;;
2646;SDS011;1333;50.958;6.770;2022-07-23T15:49:39;4.50;;;3.10;;